This is the latest recevied weather packets stored in our database for station/object K7SKM. If no packets are shown the sender has not sent any weather packets the latest 10 day(s).
| Time | Temp. | Humidity | Pressure | Rain* | Wind** | Luminosity | Snow |
|---|---|---|---|---|---|---|---|
| 1777925832 | 27.22° C | 32% | 1015 hPa | 0 mm | - | 443 W/m² | - |
| 1777925530 | 26.67° C | 33% | 1015.2 hPa | 0 mm | - | 441 W/m² | - |
| 1777925227 | 26.11° C | 36% | 1015.2 hPa | 0 mm | - | 414 W/m² | - |
| 1777924923 | 27.22° C | 34% | 1015.2 hPa | 0 mm | - | 426 W/m² | - |
| 1777924619 | 26.67° C | 33% | 1015.2 hPa | 0 mm | - | 431 W/m² | - |
| 1777924315 | 26.11° C | 34% | 1015.2 hPa | 0 mm | - | 382 W/m² | - |
| 1777924013 | 27.22° C | 34% | 1015.4 hPa | 0 mm | - | 450 W/m² | - |
| 1777923708 | 27.22° C | 34% | 1015.2 hPa | 0 mm | - | 445 W/m² | - |
| 1777923405 | 26.11° C | 36% | 1015.4 hPa | 0 mm | - | 437 W/m² | - |
| 1777923103 | 26.11° C | 37% | 1015.4 hPa | 0 mm | - | 419 W/m² | - |
| 1777922801 | 26.11° C | 37% | 1015.4 hPa | 0 mm | - | 433 W/m² | - |
| 1777922499 | 26.11° C | 39% | 1015.4 hPa | 0 mm | - | 428 W/m² | - |
| 1777922197 | 26.11° C | 37% | 1015.4 hPa | 0 mm | - | 418 W/m² | - |
| 1777921893 | 25.56° C | 38% | 1015.6 hPa | 0 mm | - | 433 W/m² | - |
| 1777921589 | 25.56° C | 38% | 1015.6 hPa | 0 mm | - | 432 W/m² | - |
| 1777921286 | 25.56° C | 39% | 1015.3 hPa | 0 mm | - | 429 W/m² | - |
| 1777920982 | 25° C | 42% | 1015.5 hPa | 0 mm | - | 412 W/m² | - |
| 1777920679 | 24.44° C | 41% | 1015.6 hPa | 0 mm | - | 406 W/m² | - |
| 1777920375 | 25.56° C | 39% | 1015.5 hPa | 0 mm | - | 402 W/m² | - |
| 1777920070 | 25.56° C | 41% | 1015.5 hPa | 0 mm | - | 407 W/m² | - |
| 1777919767 | 25.56° C | 40% | 1015.5 hPa | 0 mm | - | 402 W/m² | - |
| 1777919465 | 25.56° C | 41% | 1015.7 hPa | 0 mm | - | 396 W/m² | - |
| 1777919162 | 26.11° C | 39% | 1015.6 hPa | 0 mm | - | 403 W/m² | - |
| 1777918859 | 26.11° C | 41% | 1015.7 hPa | 0 mm | - | 399 W/m² | - |
| 1777918556 | 25° C | 42% | 1015.8 hPa | 0 mm | - | 393 W/m² | - |
* Rain latest hour (hover to see other rain measurements)
** Current wind speed in m/s (hover to see current wind gust speed)